Time;durP1;ratioP1;P1;durP2;ratioP2;P2;SDS_P1;SDS_P2;PMS_P1;PMS_P2;Temp;Humidity;BMP_temperature;BMP_pressure;BME280_temperature;BME280_humidity;BME280_pressure;Samples;Min_cycle;Max_cycle;Signal;HPM_P1;HPM_P2
2023/10/04 00:01:47;;;;;;;7.93;1.83;;;;;;;-145.69;67.09;52123.56;5038035;28;20651;-81
2023/10/04 00:04:14;;;;;;;4.03;1.90;;;;;;;-145.69;66.88;52141.41;5039076;28;20291;-81
2023/10/04 00:06:41;;;;;;;6.83;1.70;;;;;;;-145.69;66.98;52181.00;5039466;28;20303;-81
2023/10/04 00:09:09;;;;;;;3.30;1.50;;;;;;;-145.69;66.98;52143.38;5038500;28;20196;-82
2023/10/04 00:11:36;;;;;;;2.87;1.80;;;;;;;-145.69;67.41;52143.38;5036900;28;20662;-81
2023/10/04 00:14:03;;;;;;;5.07;1.80;;;;;;;-145.69;67.55;52159.22;5039210;28;20231;-81
2023/10/04 00:16:32;;;;;;;4.73;2.00;;;;;;;-145.69;67.10;52145.34;5040916;28;20211;-81
2023/10/04 00:18:59;;;;;;;4.10;1.80;;;;;;;-145.69;68.17;52139.41;5037992;28;20248;-81
2023/10/04 00:21:26;;;;;;;2.37;1.50;;;;;;;-145.69;67.33;52157.25;5037001;28;20204;-81
2023/10/04 00:23:53;;;;;;;5.70;2.00;;;;;;;-145.69;68.00;52192.88;5038184;28;20239;-80
2023/10/04 00:26:20;;;;;;;6.10;2.20;;;;;;;-145.69;67.69;52149.31;5020141;28;20196;-81
2023/10/04 00:28:46;;;;;;;3.83;1.80;;;;;;;-145.69;67.73;52139.41;5036268;28;20291;-81
2023/10/04 00:31:13;;;;;;;6.57;1.83;;;;;;;-145.69;67.50;52171.09;5035420;28;20202;-81
2023/10/04 00:33:41;;;;;;;7.83;2.30;;;;;;;-145.69;68.71;52159.22;5037975;28;20270;-81
2023/10/04 00:36:08;;;;;;;4.13;1.80;;;;;;;-145.69;67.60;52143.38;5038189;28;20636;-81
2023/10/04 00:38:34;;;;;;;3.97;1.90;;;;;;;-145.69;67.49;52163.19;5037699;28;20224;-81
2023/10/04 00:41:02;;;;;;;3.73;2.10;;;;;;;-145.69;69.42;52157.25;5037841;28;20219;-80
2023/10/04 00:43:28;;;;;;;6.17;2.27;;;;;;;-145.69;68.31;52145.34;5039333;28;20235;-81
2023/10/04 00:45:55;;;;;;;4.47;1.93;;;;;;;-145.69;68.36;52139.41;5042860;28;20670;-80
2023/10/04 00:48:24;;;;;;;3.67;1.97;;;;;;;-145.69;68.64;52131.50;5048591;28;20313;-81
2023/10/04 00:50:53;;;;;;;3.33;2.00;;;;;;;-145.69;67.77;52143.38;5041494;28;20201;-81
2023/10/04 00:53:23;;;;;;;4.93;2.13;;;;;;;-145.69;67.16;52175.06;5045339;28;20232;-81
2023/10/04 00:55:53;;;;;;;4.27;1.80;;;;;;;-145.69;67.67;52182.97;5044251;28;20204;-80
2023/10/04 00:58:20;;;;;;;4.90;2.27;;;;;;;-145.69;67.13;52151.28;5067103;27;20204;-80
2023/10/04 01:00:48;;;;;;;4.47;1.83;;;;;;;-145.69;66.97;52159.22;5048496;28;20280;-81
2023/10/04 01:03:19;;;;;;;6.87;1.70;;;;;;;-145.69;67.94;52165.16;5045940;28;20210;-80
2023/10/04 01:05:47;;;;;;;4.50;1.93;;;;;;;-145.69;67.70;52159.22;5042181;28;20272;-81
2023/10/04 01:08:16;;;;;;;6.10;2.40;;;;;;;-145.69;66.71;52171.09;5043843;28;20212;-81
2023/10/04 01:10:44;;;;;;;5.37;2.03;;;;;;;-145.69;67.16;52165.16;5042838;28;20204;-81
2023/10/04 01:13:11;;;;;;;6.53;1.97;;;;;;;-145.69;67.24;52127.53;5040977;28;20231;-81
2023/10/04 01:15:39;;;;;;;5.43;2.30;;;;;;;-145.69;69.46;52099.81;5038274;28;20446;-81
2023/10/04 01:18:07;;;;;;;5.30;2.37;;;;;;;-145.69;68.15;52181.00;5040610;28;20269;-81
2023/10/04 01:20:37;;;;;;;5.83;2.40;;;;;;;-145.69;67.86;52147.34;5039313;28;20666;-81
2023/10/04 01:23:06;;;;;;;5.23;2.10;;;;;;;-145.69;67.85;52129.50;5039990;28;20208;-81
2023/10/04 01:25:34;;;;;;;3.70;2.03;;;;;;;-145.69;68.56;52143.38;5040469;28;20204;-80
2023/10/04 01:28:03;;;;;;;4.00;1.80;;;;;;;-145.69;68.79;52159.22;5086936;27;20218;-81
2023/10/04 01:30:31;;;;;;;5.10;2.07;;;;;;;-145.69;69.04;52175.06;5117408;27;20200;-81
2023/10/04 01:33:00;;;;;;;4.40;2.17;;;;;;;-145.69;69.48;52147.34;5080633;27;20223;-81
2023/10/04 01:35:27;;;;;;;7.40;2.10;;;;;;;-145.69;69.82;52169.13;5039887;28;20339;-80
2023/10/04 01:37:55;;;;;;;7.07;2.17;;;;;;;-145.69;69.20;52153.28;5041588;28;20192;-81
2023/10/04 01:40:26;;;;;;;3.23;2.10;;;;;;;-145.69;69.81;52153.28;5039519;28;20211;-81
2023/10/04 01:42:55;;;;;;;7.10;2.13;;;;;;;-145.69;69.89;52151.28;5039862;28;20204;-81
2023/10/04 01:45:21;;;;;;;10.10;2.47;;;;;;;-145.69;69.72;52145.34;5033863;28;20583;-81
2023/10/04 01:47:49;;;;;;;4.97;2.07;;;;;;;-145.69;69.22;52153.28;5035203;28;20287;-81
2023/10/04 01:50:16;;;;;;;5.17;2.07;;;;;;;-145.69;68.47;52123.56;5036199;28;20237;-81
2023/10/04 01:52:48;;;;;;;4.73;2.27;;;;;;;-145.69;68.34;52139.41;5033968;28;20207;-81
2023/10/04 01:55:17;;;;;;;3.30;1.70;;;;;;;-145.69;68.36;52139.41;5031822;28;20607;-81
2023/10/04 01:57:45;;;;;;;4.43;2.33;;;;;;;-145.69;68.65;52139.41;5033192;28;20253;-81
2023/10/04 02:00:16;;;;;;;4.30;2.13;;;;;;;-145.69;68.93;52141.41;5037116;28;20208;-81
2023/10/04 02:02:43;;;;;;;5.47;2.23;;;;;;;-145.69;68.77;52151.28;5035247;28;20278;-81
2023/10/04 02:05:17;;;;;;;8.50;1.83;;;;;;;-145.69;68.26;52141.41;5032367;28;20200;-81
2023/10/04 02:07:44;;;;;;;5.53;1.97;;;;;;;-145.69;68.41;52143.38;5033198;28;20658;-81
2023/10/04 02:10:13;;;;;;;4.63;1.87;;;;;;;-145.69;68.06;52171.09;5035434;28;20292;-81
2023/10/04 02:12:39;;;;;;;7.17;1.87;;;;;;;-145.69;67.58;52139.41;5036715;28;20609;-81
2023/10/04 02:15:13;;;;;;;5.30;2.13;;;;;;;-145.69;67.46;52127.53;5039812;28;20575;-80
2023/10/04 02:17:39;;;;;;;3.63;1.90;;;;;;;-145.69;66.91;52159.22;5038799;28;20196;-81
2023/10/04 02:20:09;;;;;;;4.00;2.47;;;;;;;-145.69;67.38;52149.31;5038580;28;20279;-81
2023/10/04 02:22:36;;;;;;;5.97;2.30;;;;;;;-145.69;67.20;52167.13;5034878;28;20208;-80
2023/10/04 02:25:03;;;;;;;5.87;2.33;;;;;;;-145.69;68.37;52139.41;5034836;28;20211;-81
2023/10/04 02:27:32;;;;;;;6.93;2.20;;;;;;;-145.69;67.73;52167.13;5042627;28;20215;-81
2023/10/04 02:29:58;;;;;;;7.93;2.10;;;;;;;-145.69;68.10;52161.19;5036304;28;20204;-81
2023/10/04 02:32:27;;;;;;;5.97;1.93;;;;;;;-145.69;68.64;52131.50;5038669;28;20256;-81
2023/10/04 02:34:53;;;;;;;6.37;2.17;;;;;;;-145.69;68.29;52155.25;5038907;28;20598;-81
2023/10/04 02:37:21;;;;;;;4.97;2.37;;;;;;;-145.69;68.81;52186.94;5035955;28;20204;-81
2023/10/04 02:39:50;;;;;;;4.90;2.20;;;;;;;-145.69;69.05;52141.41;5039537;28;20662;-81
2023/10/04 02:42:21;;;;;;;6.57;2.13;;;;;;;-145.69;69.19;52147.34;5040195;28;20819;-81
2023/10/04 02:44:47;;;;;;;7.07;2.17;;;;;;;-145.69;68.86;52139.41;5043749;28;20252;-81
2023/10/04 02:47:14;;;;;;;4.73;1.77;;;;;;;-145.69;69.31;52163.19;5047752;28;20224;-81
2023/10/04 02:49:42;;;;;;;4.40;2.20;;;;;;;-145.69;69.40;52147.34;5048854;28;20578;-81
2023/10/04 02:52:11;;;;;;;3.00;1.80;;;;;;;-145.69;69.96;52151.28;5047392;28;20257;-82
2023/10/04 02:54:38;;;;;;;3.90;2.10;;;;;;;-145.69;68.71;52125.56;5096010;27;20227;-81
2023/10/04 02:57:08;;;;;;;8.47;2.20;;;;;;;-145.69;69.17;52171.09;5146694;27;20200;-81
2023/10/04 02:59:35;;;;;;;9.57;2.40;;;;;;;-145.69;68.72;52175.06;5144411;27;20253;-82
2023/10/04 03:02:03;;;;;;;8.70;2.50;;;;;;;-145.69;68.15;52163.19;5042203;27;20200;-81
2023/10/04 03:04:29;;;;;;;9.10;2.20;;;;;;;-145.69;69.01;52139.41;5035561;28;20205;-81
2023/10/04 03:07:00;;;;;;;6.70;2.20;;;;;;;-145.69;68.56;52190.91;5034258;28;20204;-81
2023/10/04 03:09:27;;;;;;;7.87;2.27;;;;;;;-145.69;68.43;52129.50;5033639;28;20228;-81
2023/10/04 03:11:53;;;;;;;5.67;2.20;;;;;;;-145.69;68.99;52151.28;5034870;28;20655;-81
2023/10/04 03:14:20;;;;;;;5.73;2.30;;;;;;;-145.69;69.20;52159.22;5034391;28;20725;-80
2023/10/04 03:16:46;;;;;;;5.53;2.30;;;;;;;-145.69;69.38;52131.50;5033536;28;20202;-81
2023/10/04 03:19:14;;;;;;;4.73;1.93;;;;;;;-145.69;69.50;52175.06;5034868;28;20562;-80
2023/10/04 03:21:45;;;;;;;8.07;2.20;;;;;;;-145.69;69.21;52181.00;5034686;28;20365;-81
2023/10/04 03:24:14;;;;;;;5.87;2.40;;;;;;;-145.69;69.16;52141.41;5035755;28;20299;-80
2023/10/04 03:26:40;;;;;;;5.20;2.23;;;;;;;-145.69;69.19;52135.47;5031168;28;20259;-80
2023/10/04 03:29:07;;;;;;;3.87;1.80;;;;;;;-145.69;69.00;52163.19;5036225;28;20200;-81
2023/10/04 03:31:35;;;;;;;8.17;2.57;;;;;;;-145.69;68.99;52155.25;5038942;28;20256;-81
2023/10/04 03:34:03;;;;;;;5.40;2.20;;;;;;;-145.69;68.91;52159.22;5039348;28;20224;-81
2023/10/04 03:36:34;;;;;;;6.13;2.40;;;;;;;-145.69;68.68;52141.41;5036473;27;20232;-81
2023/10/04 03:39:00;;;;;;;8.90;2.40;;;;;;;-145.69;68.89;52163.19;5037286;28;20200;-81
2023/10/04 03:41:28;;;;;;;5.03;2.30;;;;;;;-145.69;69.10;52137.44;5035183;28;20204;-81
2023/10/04 03:43:55;;;;;;;5.87;2.27;;;;;;;-145.69;68.77;52153.28;5038093;28;20639;-81
2023/10/04 03:46:21;;;;;;;6.20;2.10;;;;;;;-145.69;68.83;52139.41;5037237;28;20219;-81
2023/10/04 03:48:49;;;;;;;4.33;1.83;;;;;;;-145.69;68.67;52139.41;5038055;28;20196;-81
2023/10/04 03:51:20;;;;;;;5.60;1.90;;;;;;;-145.69;69.05;52127.53;5038210;28;20200;-81
2023/10/04 03:53:49;;;;;;;7.67;2.10;;;;;;;-145.69;69.11;52123.56;5037765;28;20291;-82
2023/10/04 03:56:16;;;;;;;3.97;2.00;;;;;;;-145.69;68.79;52143.38;5018725;28;20211;-81
2023/10/04 03:58:45;;;;;;;6.70;2.07;;;;;;;-145.69;68.40;52186.94;5119233;27;20196;-81
2023/10/04 04:01:14;;;;;;;4.20;2.00;;;;;;;-145.69;68.13;52137.44;5143524;27;20228;-81
2023/10/04 04:03:40;;;;;;;4.63;2.03;;;;;;;-145.69;68.37;52139.41;5146381;27;20228;-81
2023/10/04 04:06:07;;;;;;;6.00;2.13;;;;;;;-145.69;67.81;52111.69;5143062;27;20200;-81
2023/10/04 04:08:33;;;;;;;6.03;2.30;;;;;;;-145.69;68.24;52137.44;5138084;27;20249;-81
2023/10/04 04:11:01;;;;;;;7.27;2.00;;;;;;;-145.69;68.20;52139.41;5035471;28;20196;-81
2023/10/04 04:13:28;;;;;;;5.60;2.30;;;;;;;-145.69;68.64;52131.50;5035593;28;20629;-81
2023/10/04 04:15:56;;;;;;;4.17;1.90;;;;;;;-145.69;68.83;52179.03;5034357;28;20196;-81
2023/10/04 04:18:23;;;;;;;5.20;2.13;;;;;;;-145.69;68.40;52159.22;5035850;28;20730;-81
2023/10/04 04:20:50;;;;;;;4.17;1.90;;;;;;;-145.69;68.69;52127.53;5037316;28;20209;-81
2023/10/04 04:23:17;;;;;;;8.23;2.57;;;;;;;-145.69;68.40;52137.44;5037077;28;20200;-81
2023/10/04 04:25:45;;;;;;;7.80;1.90;;;;;;;-145.69;68.67;52143.38;5036312;28;20303;-81
2023/10/04 04:28:14;;;;;;;6.33;2.10;;;;;;;-145.69;68.68;52145.34;5037546;28;20551;-81
2023/10/04 04:30:41;;;;;;;3.63;1.80;;;;;;;-145.69;68.87;52143.38;5014894;28;20223;-81
2023/10/04 04:33:10;;;;;;;6.80;1.93;;;;;;;-145.69;68.67;52127.53;5011741;28;20200;-81
2023/10/04 04:35:47;;;;;;;4.27;2.13;;;;;;;-145.69;68.60;52133.47;5012629;28;20237;-81
2023/10/04 04:38:17;;;;;;;4.47;2.10;;;;;;;-145.69;68.41;52145.34;5013814;28;20208;-82
2023/10/04 04:40:46;;;;;;;7.80;2.63;;;;;;;-145.69;68.77;52167.13;5016647;28;20208;-81
2023/10/04 04:43:26;;;;;;;3.97;1.80;;;;;;;-145.69;68.17;52175.06;5018413;28;20697;-81
2023/10/04 04:45:56;;;;;;;3.70;1.90;;;;;;;-145.69;68.29;52149.31;5036135;28;20663;-81
2023/10/04 04:48:26;;;;;;;4.07;1.97;;;;;;;-145.69;67.42;52127.53;5035894;28;20212;-82
2023/10/04 04:50:54;;;;;;;3.77;1.90;;;;;;;-145.69;67.38;52143.38;5049819;27;20200;-81
2023/10/04 04:53:22;;;;;;;3.67;2.03;;;;;;;-145.69;68.25;52198.81;5032610;28;20208;-81
2023/10/04 04:55:49;;;;;;;4.90;1.90;;;;;;;-145.69;68.40;52165.16;5032335;28;20224;-81
2023/10/04 04:58:18;;;;;;;4.93;1.90;;;;;;;-145.69;68.36;52143.38;5033323;28;20200;-81
2023/10/04 05:00:49;;;;;;;4.10;1.97;;;;;;;-145.69;68.08;52115.66;5032971;28;20204;-81
2023/10/04 05:03:16;;;;;;;3.20;1.90;;;;;;;-145.69;67.47;52171.09;5033594;28;20287;-81
2023/10/04 05:05:44;;;;;;;3.50;1.80;;;;;;;-145.69;67.77;52155.25;5035607;28;20200;-81
2023/10/04 05:08:11;;;;;;;6.13;2.23;;;;;;;-145.69;68.39;52173.09;5035623;28;20204;-81
2023/10/04 05:10:38;;;;;;;6.17;2.20;;;;;;;-145.69;68.13;52139.41;5035848;28;20203;-81
2023/10/04 05:13:07;;;;;;;4.17;1.73;;;;;;;-145.69;67.80;52155.25;5034306;28;20230;-82
2023/10/04 05:15:35;;;;;;;5.30;2.00;;;;;;;-145.69;67.80;52163.19;5031500;28;20228;-81
2023/10/04 05:18:08;;;;;;;9.57;1.77;;;;;;;-145.69;67.42;52165.16;5035526;28;20200;-80
2023/10/04 05:20:35;;;;;;;4.57;2.10;;;;;;;-145.69;68.07;52159.22;5034243;28;20236;-81
2023/10/04 05:23:04;;;;;;;6.93;2.60;;;;;;;-145.69;67.54;52175.06;5034324;28;20222;-81
2023/10/04 05:25:31;;;;;;;6.40;2.07;;;;;;;-145.69;67.97;52186.94;5036152;28;20273;-81
2023/10/04 05:28:03;;;;;;;4.13;2.03;;;;;;;-145.69;67.55;52157.25;5046996;27;20193;-81
2023/10/04 05:30:30;;;;;;;4.47;2.13;;;;;;;-145.69;68.01;52186.94;5034480;28;20214;-81
2023/10/04 05:32:57;;;;;;;4.50;2.27;;;;;;;-145.69;68.23;52169.13;5033445;28;20204;-81
2023/10/04 05:35:24;;;;;;;5.30;2.07;;;;;;;-145.69;69.01;52173.09;5036727;28;20251;-81
2023/10/04 05:37:50;;;;;;;5.37;2.20;;;;;;;-145.69;69.48;52159.22;5081764;27;20578;-81
2023/10/04 05:40:25;;;;;;;4.10;2.17;;;;;;;-145.69;69.94;52167.13;5141976;27;20205;-82
2023/10/04 05:42:52;;;;;;;11.37;2.77;;;;;;;-145.69;69.82;52157.25;5142131;27;20253;-83
2023/10/04 05:45:19;;;;;;;6.83;2.23;;;;;;;-145.69;69.05;52135.47;5143879;27;20208;-80
2023/10/04 05:47:46;;;;;;;6.87;2.53;;;;;;;-145.69;69.39;52163.19;5045729;28;20297;-83
2023/10/04 05:50:17;;;;;;;6.43;2.73;;;;;;;-145.69;69.06;52206.75;5036531;28;20269;-81
2023/10/04 05:52:44;;;;;;;6.90;2.33;;;;;;;-145.69;69.36;52139.41;5035154;28;20200;-81
2023/10/04 05:55:11;;;;;;;5.17;2.07;;;;;;;-145.69;68.47;52153.28;5033854;28;20275;-82
2023/10/04 05:57:39;;;;;;;4.77;2.17;;;;;;;-145.69;68.52;52173.09;5032476;28;20651;-83
2023/10/04 06:00:21;;;;;;;5.17;2.10;;;;;;;-145.69;68.11;52182.97;5031953;28;20666;-83
2023/10/04 06:02:49;;;;;;;6.57;2.10;;;;;;;-145.69;68.37;52139.41;5030434;28;20196;-83
2023/10/04 06:05:16;;;;;;;5.07;2.37;;;;;;;-145.69;68.34;52159.22;5032731;28;20200;-83
2023/10/04 06:07:43;;;;;;;5.87;2.00;;;;;;;-145.69;68.81;52181.00;5034140;28;20291;-83
2023/10/04 06:10:11;;;;;;;5.10;2.33;;;;;;;-145.69;68.82;52145.34;5038000;28;20287;-83
2023/10/04 06:12:39;;;;;;;7.63;2.47;;;;;;;-145.69;68.55;52171.09;5040147;28;20204;-83
2023/10/04 06:15:10;;;;;;;5.33;2.17;;;;;;;-145.69;68.50;52167.13;5032829;28;20582;-82
2023/10/04 06:17:38;;;;;;;3.53;2.20;;;;;;;-145.69;68.42;52147.34;5012784;28;20232;-83
2023/10/04 06:20:22;;;;;;;5.87;2.10;;;;;;;-145.69;68.19;52171.09;5012541;28;20200;-82
2023/10/04 06:22:50;;;;;;;5.30;2.50;;;;;;;-145.69;68.13;52175.06;5015514;28;20211;-83
2023/10/04 06:25:17;;;;;;;6.03;1.97;;;;;;;-145.69;68.82;52169.13;5015491;28;20205;-83
2023/10/04 06:27:45;;;;;;;9.97;2.37;;;;;;;-145.69;68.54;52159.22;5013574;28;20719;-83
2023/10/04 06:30:13;;;;;;;9.17;2.67;;;;;;;-145.69;68.69;52173.09;5016046;28;20235;-83
2023/10/04 06:32:39;;;;;;;6.90;2.30;;;;;;;-145.69;68.81;52159.22;5033273;28;20202;-83
2023/10/04 06:35:08;;;;;;;5.67;2.30;;;;;;;-145.69;68.86;52179.03;5031312;28;20295;-83
2023/10/04 06:37:34;;;;;;;8.03;3.53;;;;;;;-145.69;68.94;52173.09;5031927;28;20232;-83
2023/10/04 06:40:01;;;;;;;5.40;2.63;;;;;;;-145.69;68.68;52184.97;5031844;28;20554;-83
2023/10/04 06:42:27;;;;;;;6.17;2.57;;;;;;;-145.69;68.88;52131.50;5031134;28;20273;-83
2023/10/04 06:44:56;;;;;;;3.63;2.00;;;;;;;-145.69;68.53;52171.09;5031024;28;20985;-83
2023/10/04 06:47:23;;;;;;;4.43;2.23;;;;;;;-145.69;68.63;52226.53;5044046;28;20544;-83
2023/10/04 06:49:50;;;;;;;4.00;2.03;;;;;;;-145.69;68.67;52163.19;5030015;28;20207;-83
2023/10/04 06:52:15;;;;;;;6.10;2.40;;;;;;;-145.69;68.84;52163.19;5031833;28;20200;-83
2023/10/04 06:54:42;;;;;;;3.70;2.00;;;;;;;-145.69;68.87;52188.91;5034452;28;20318;-82
2023/10/04 06:57:09;;;;;;;5.73;2.00;;;;;;;-145.69;68.55;52165.16;5033625;28;20204;-83
2023/10/04 06:59:35;;;;;;;4.97;2.23;;;;;;;-145.69;68.37;52157.25;5032825;28;20211;-83
2023/10/04 07:02:03;;;;;;;4.70;2.10;;;;;;;-145.69;69.23;52186.94;5033010;28;20208;-82
2023/10/04 07:04:30;;;;;;;4.53;2.07;;;;;;;-145.69;68.47;52171.09;5032331;28;20196;-82
2023/10/04 07:06:57;;;;;;;5.07;2.30;;;;;;;-145.69;68.88;52186.94;5035795;28;20208;-83
2023/10/04 07:09:24;;;;;;;5.27;2.00;;;;;;;-145.69;68.67;52167.13;5032100;28;20719;-83
2023/10/04 07:11:50;;;;;;;6.63;2.50;;;;;;;-145.69;69.15;52167.13;5031446;28;20294;-82
2023/10/04 07:14:17;;;;;;;4.93;2.27;;;;;;;-145.69;69.36;52163.19;5032658;28;20206;-83
2023/10/04 07:16:44;;;;;;;6.67;2.30;;;;;;;-145.69;68.90;52155.25;5033909;28;20223;-82
2023/10/04 07:19:14;;;;;;;5.20;2.23;;;;;;;-145.69;68.86;52157.25;5034819;28;20210;-82
2023/10/04 07:21:40;;;;;;;4.93;2.03;;;;;;;-145.69;68.77;52171.09;5034232;28;20204;-82
2023/10/04 07:24:07;;;;;;;5.13;2.47;;;;;;;-145.69;68.87;52155.25;5033329;28;20200;-82
2023/10/04 07:26:36;;;;;;;4.47;2.30;;;;;;;-145.69;68.87;52182.97;5032610;28;20553;-83
2023/10/04 07:29:03;;;;;;;7.43;2.50;;;;;;;-145.69;69.45;52159.22;5033034;28;20203;-82
2023/10/04 07:31:31;;;;;;;3.23;2.00;;;;;;;-145.69;69.39;52143.38;5038878;27;20208;-82
2023/10/04 07:33:57;;;;;;;3.60;2.03;;;;;;;-145.69;69.21;52155.25;5032685;28;20209;-82
2023/10/04 07:36:25;;;;;;;3.50;1.90;;;;;;;-145.69;69.22;52141.41;5032200;28;20300;-82
2023/10/04 07:38:52;;;;;;;8.17;2.17;;;;;;;-145.69;68.94;52165.16;5032552;28;20204;-82
2023/10/04 07:41:18;;;;;;;3.00;1.50;;;;;;;-145.69;69.02;52161.19;5032044;28;20544;-82
2023/10/04 07:43:45;;;;;;;5.20;2.07;;;;;;;-145.69;69.08;52145.34;5032137;28;20208;-82
2023/10/04 07:46:11;;;;;;;5.20;1.70;;;;;;;-145.69;69.17;52159.22;5051135;27;20292;-82
2023/10/04 07:48:38;;;;;;;7.70;2.20;;;;;;;-145.69;69.23;52135.47;5031853;28;20207;-82
2023/10/04 07:51:04;;;;;;;5.33;2.37;;;;;;;-145.69;68.53;52159.22;5031758;28;20686;-82
2023/10/04 07:53:32;;;;;;;7.30;2.30;;;;;;;-145.69;68.48;52145.34;5031460;28;20197;-82
2023/10/04 07:55:59;;;;;;;3.72;1.95;;;;;;;-145.69;67.23;52159.22;5032105;28;20235;-83
2023/10/04 07:58:25;;;;;;;6.50;1.97;;;;;;;-145.69;68.27;52141.41;5033084;28;20207;-82
2023/10/04 08:00:52;;;;;;;6.90;2.47;;;;;;;-145.69;67.75;52131.50;5032784;28;20207;-80
2023/10/04 08:03:19;;;;;;;5.20;2.03;;;;;;;-145.69;67.79;52137.44;5033469;28;20208;-80
2023/10/04 08:05:45;;;;;;;4.17;2.17;;;;;;;-145.69;67.66;52135.47;5031720;28;20197;-81
2023/10/04 08:08:13;;;;;;;9.37;1.97;;;;;;;-145.69;66.55;52143.38;5032363;28;20207;-82
2023/10/04 08:10:41;;;;;;;9.20;1.80;;;;;;;-145.69;67.13;52131.50;5033898;28;20267;-82
2023/10/04 08:13:08;;;;;;;8.03;1.83;;;;;;;-145.69;67.38;52153.28;5031581;28;20204;-82
2023/10/04 08:15:36;;;;;;;9.87;2.20;;;;;;;-145.69;64.87;52163.19;5031758;28;20322;-81
2023/10/04 08:18:04;;;;;;;3.67;1.58;;;;;;;-145.69;66.10;52105.75;5031540;28;20200;-82
2023/10/04 08:20:32;;;;;;;8.63;1.83;;;;;;;-145.69;66.03;52123.56;5031423;28;20600;-82
2023/10/04 08:23:00;;;;;;;8.32;1.67;;;;;;;-145.69;66.60;52149.31;5030836;28;20192;-79
2023/10/04 08:25:28;;;;;;;4.77;1.80;;;;;;;-145.69;68.30;52135.47;5031036;28;20480;-82
2023/10/04 08:27:57;;;;;;;9.77;2.03;;;;;;;-145.69;64.42;52149.31;5043761;28;20529;-79
2023/10/04 08:30:25;;;;;;;6.93;2.00;;;;;;;-145.69;63.73;52117.63;5045216;28;20212;-79
2023/10/04 08:32:53;;;;;;;5.75;1.88;;;;;;;-145.69;65.41;52139.41;5038397;28;20204;-79
2023/10/04 08:35:24;;;;;;;6.00;1.90;;;;;;;-145.69;65.21;52131.50;5036163;28;20232;-80
2023/10/04 08:37:53;;;;;;;5.35;1.63;;;;;;;-145.69;65.80;52097.84;5034272;28;20196;-78
2023/10/04 08:40:19;;;;;;;12.00;3.17;;;;;;;-145.69;65.80;52111.69;5031548;28;20197;-79
2023/10/04 08:42:48;;;;;;;16.95;2.97;;;;;;;-145.69;65.36;52095.84;5031071;28;20222;-79
2023/10/04 08:45:17;;;;;;;9.68;2.50;;;;;;;-145.69;65.01;52131.50;5031066;28;20214;-79
2023/10/04 08:47:50;;;;;;;5.53;1.80;;;;;;;-145.69;63.69;52135.47;5037464;27;20215;-78
2023/10/04 08:50:23;;;;;;;4.20;1.60;;;;;;;-145.69;63.84;52127.53;5011216;28;20216;-78
2023/10/04 08:52:56;;;;;;;8.82;2.05;;;;;;;-145.69;63.88;52095.84;5027025;28;20196;-79
2023/10/04 08:55:25;;;;;;;5.20;1.70;;;;;;;-145.69;63.79;52115.66;5030838;28;20228;-79
2023/10/04 08:57:52;;;;;;;4.47;1.70;;;;;;;-145.69;63.23;52121.59;5030580;28;20711;-79
2023/10/04 09:00:28;;;;;;;4.88;2.08;;;;;;;-145.69;64.31;52131.50;5030351;28;20205;-79
2023/10/04 09:02:56;;;;;;;2.70;1.45;;;;;;;-145.69;64.19;52131.50;5030312;28;20554;-79
2023/10/04 09:05:23;;;;;;;2.40;1.60;;;;;;;-145.69;63.77;52099.81;5030775;28;20242;-79
2023/10/04 09:07:50;;;;;;;7.05;1.63;;;;;;;-145.69;61.88;52103.78;5030155;28;20212;-79
2023/10/04 09:10:19;;;;;;;4.88;1.45;;;;;;;-145.69;62.58;52099.81;5030564;28;20554;-78
2023/10/04 09:12:47;;;;;;;2.95;1.38;;;;;;;-145.69;60.92;52127.53;5030426;28;20200;-79
2023/10/04 09:15:14;;;;;;;3.40;1.63;;;;;;;-145.69;59.47;52123.56;5030662;28;20203;-79
2023/10/04 09:17:47;;;;;;;3.28;1.48;;;;;;;-145.69;58.30;52111.69;5030618;28;20201;-78
2023/10/04 09:20:16;;;;;;;8.70;1.98;;;;;;;-145.69;58.38;52093.88;5030466;28;20742;-81
2023/10/04 09:22:42;;;;;;;7.78;1.80;;;;;;;-145.69;56.22;52103.78;5031148;28;20200;-80
2023/10/04 09:25:10;;;;;;;4.03;1.58;;;;;;;-145.69;56.66;52103.78;5031557;28;20562;-81
2023/10/04 09:27:38;;;;;;;4.53;1.60;;;;;;;-145.69;55.62;52087.94;5092723;27;20711;-81
2023/10/04 09:30:20;;;;;;;4.65;1.58;;;;;;;-145.69;54.62;52095.84;5094183;27;20196;-81
2023/10/04 09:32:49;;;;;;;5.97;2.03;;;;;;;-145.69;55.18;52113.66;5038556;28;20195;-81
2023/10/04 09:35:18;;;;;;;10.05;1.80;;;;;;;-145.69;55.75;52111.69;5027769;28;20733;-81
2023/10/04 09:37:45;;;;;;;3.70;1.33;;;;;;;-145.69;52.45;52095.84;5043849;27;20253;-80
2023/10/04 09:40:15;;;;;;;5.07;1.65;;;;;;;-145.69;54.61;52087.94;5030071;28;20200;-81
2023/10/04 09:42:46;;;;;;;6.93;1.98;;;;;;;-145.69;53.15;52089.91;5030048;28;20282;-80
2023/10/04 09:45:14;;;;;;;7.93;1.80;;;;;;;-145.69;54.15;52072.09;5030179;28;20232;-81
2023/10/04 09:47:40;;;;;;;5.63;1.95;;;;;;;-145.69;53.05;52119.63;5031507;28;20559;-81
2023/10/04 09:50:12;;;;;;;7.22;1.80;;;;;;;-145.69;52.82;52066.16;5031071;28;20212;-81
2023/10/04 09:52:39;;;;;;;5.93;1.95;;;;;;;-145.69;52.17;52072.09;5041709;28;20207;-80
2023/10/04 09:55:08;;;;;;;3.95;1.70;;;;;;;-145.69;50.96;52091.88;5038795;28;20196;-81
2023/10/04 09:57:37;;;;;;;6.80;2.17;;;;;;;-145.69;49.50;52076.03;5041028;28;20577;-80
2023/10/04 10:00:17;;;;;;;5.10;1.60;;;;;;;-145.69;49.66;52083.97;5050343;28;20532;-81
2023/10/04 10:02:47;;;;;;;5.53;1.90;;;;;;;-145.69;47.63;52074.06;5054810;28;20195;-81
2023/10/04 10:05:21;;;;;;;2.65;1.65;;;;;;;-145.69;47.96;52048.31;5043006;28;20204;-80
2023/10/04 10:07:50;;;;;;;4.50;1.85;;;;;;;-145.69;47.96;52080.00;5033533;28;20200;-80
2023/10/04 10:10:20;;;;;;;5.57;1.77;;;;;;;-145.69;47.04;52064.16;5032848;28;20627;-80
2023/10/04 10:12:49;;;;;;;4.90;1.90;;;;;;;-145.69;47.06;52080.00;5031603;28;20208;-81
2023/10/04 10:15:18;;;;;;;4.50;1.77;;;;;;;-145.69;45.81;52097.84;5031027;28;20563;-81
2023/10/04 10:17:46;;;;;;;8.80;1.83;;;;;;;-145.69;45.93;52070.09;5029696;28;20643;-80
2023/10/04 10:20:16;;;;;;;3.78;1.60;;;;;;;-145.69;45.80;52072.09;5029170;28;20624;-80
2023/10/04 10:23:13;;;;;;;4.80;1.75;;;;;;;-145.69;45.24;52083.97;5029475;28;20208;-81
2023/10/04 10:25:41;;;;;;;7.90;1.73;;;;;;;-145.69;45.32;52044.38;5028696;28;20189;-82
2023/10/04 10:28:20;;;;;;;6.32;1.92;;;;;;;-145.69;44.91;52040.41;5029508;28;20239;-80
2023/10/04 10:30:47;;;;;;;4.85;1.20;;;;;;;-145.69;44.68;52020.59;5029526;28;20267;-82
2023/10/04 10:33:13;;;;;;;6.32;1.90;;;;;;;-145.69;44.36;52052.28;5029305;28;20203;-81
2023/10/04 10:35:52;;;;;;;6.03;1.50;;;;;;;-145.69;43.31;52032.47;5029115;28;20729;-82
2023/10/04 10:38:44;;;;;;;4.88;1.70;;;;;;;-145.69;42.64;52004.75;5029525;28;20210;-80
2023/10/04 10:42:05;;;;;;;5.25;1.70;;;;;;;-145.69;43.39;52024.56;5029058;28;20205;-81
2023/10/04 10:44:33;;;;;;;3.65;1.55;;;;;;;-145.69;44.06;52032.47;5060413;28;20204;-81
2023/10/04 10:47:06;;;;;;;4.72;1.73;;;;;;;-145.69;43.60;52024.56;5123953;27;20199;-81
2023/10/04 10:49:44;;;;;;;5.10;1.75;;;;;;;-145.69;43.71;52050.31;5033257;28;20204;-81
2023/10/04 10:52:22;;;;;;;5.90;1.70;;;;;;;-145.69;44.32;52024.56;5032951;28;20601;-81
2023/10/04 10:54:49;;;;;;;6.07;1.70;;;;;;;-145.69;44.49;52064.16;5031803;28;20193;-81
2023/10/04 10:57:17;;;;;;;4.10;1.70;;;;;;;-145.69;44.59;52062.19;5032316;28;20224;-81
2023/10/04 10:59:46;;;;;;;4.30;1.55;;;;;;;-145.69;44.99;52054.25;5032578;28;20208;-81
2023/10/04 11:02:12;;;;;;;4.60;1.42;;;;;;;-145.69;45.21;52048.31;5032744;28;20196;-80
2023/10/04 11:04:39;;;;;;;5.88;1.58;;;;;;;-145.69;46.61;52060.22;5031975;28;20204;-81
2023/10/04 11:07:06;;;;;;;7.10;1.98;;;;;;;-145.69;45.30;52052.28;5032042;28;20249;-81
2023/10/04 11:09:38;;;;;;;3.75;1.90;;;;;;;-145.69;43.33;52012.69;5032593;28;20196;-80
2023/10/04 11:12:06;;;;;;;5.70;1.70;;;;;;;-145.69;44.53;52022.59;5031749;28;20208;-80
2023/10/04 11:14:34;;;;;;;5.22;1.70;;;;;;;-145.69;45.37;52004.75;5036000;28;20621;-80
2023/10/04 11:17:00;;;;;;;2.70;1.38;;;;;;;-145.69;44.06;52032.47;5033024;28;20262;-81
2023/10/04 11:19:27;;;;;;;7.03;2.28;;;;;;;-145.69;43.38;52030.50;5098305;27;20196;-81
2023/10/04 11:21:53;;;;;;;5.35;1.48;;;;;;;-145.69;43.16;52006.75;5136757;27;20204;-81
2023/10/04 11:24:20;;;;;;;3.85;1.38;;;;;;;-145.69;42.44;52004.75;5054254;27;20203;-81